createdAt,value
2018-05-23T00:01:13.294Z,99.90
2018-05-23T00:03:40.722Z,99.90
2018-05-23T00:06:08.925Z,99.90
2018-05-23T00:08:36.368Z,99.90
2018-05-23T00:11:03.804Z,99.90
2018-05-23T00:13:32.037Z,99.90
2018-05-23T00:15:59.468Z,99.90
2018-05-23T00:18:26.910Z,99.90
2018-05-23T00:20:54.348Z,99.90
2018-05-23T00:23:22.552Z,99.90
2018-05-23T00:25:49.996Z,99.90
2018-05-23T00:28:17.449Z,99.90
2018-05-23T00:30:45.749Z,99.90
2018-05-23T00:33:13.216Z,99.90
2018-05-23T00:35:40.654Z,99.90
2018-05-23T00:38:08.085Z,99.90
2018-05-23T00:40:35.524Z,99.90
2018-05-23T00:43:03.724Z,99.90
2018-05-23T00:45:31.205Z,99.90
2018-05-23T00:47:58.669Z,99.90
2018-05-23T00:50:26.100Z,99.90
2018-05-23T00:52:53.585Z,99.90
2018-05-23T00:55:32.984Z,99.90
2018-05-23T00:58:00.473Z,99.90
2018-05-23T01:00:27.908Z,99.90
2018-05-23T01:02:55.388Z,99.90
2018-05-23T01:05:22.841Z,99.90
2018-05-23T01:07:50.268Z,99.90
2018-05-23T01:10:17.706Z,99.90
2018-05-23T01:12:45.910Z,99.90
2018-05-23T01:15:13.393Z,99.90
2018-05-23T01:17:40.847Z,99.90
2018-05-23T01:20:08.289Z,99.90
2018-05-23T01:22:35.749Z,99.90
2018-05-23T01:25:03.176Z,99.90
2018-05-23T01:27:30.630Z,99.90
2018-05-23T01:29:58.044Z,99.90
2018-05-23T01:32:25.584Z,99.90
2018-05-23T01:34:53.028Z,99.90
2018-05-23T01:37:20.492Z,99.90
2018-05-23T01:39:47.927Z,99.90
2018-05-23T01:42:15.412Z,99.90
2018-05-23T01:44:42.846Z,99.90
2018-05-23T01:47:10.321Z,99.90
2018-05-23T01:49:37.860Z,99.90
2018-05-23T01:52:05.346Z,99.90
2018-05-23T01:54:32.796Z,99.90
2018-05-23T01:57:00.235Z,99.90
2018-05-23T01:59:27.690Z,99.90
2018-05-23T02:01:55.124Z,99.90
2018-05-23T02:04:22.616Z,99.90
2018-05-23T02:06:50.092Z,99.90
2018-05-23T02:09:17.524Z,99.90
2018-05-23T02:11:44.994Z,99.90
2018-05-23T02:14:12.489Z,99.90
2018-05-23T02:16:39.899Z,99.90
2018-05-23T02:19:07.328Z,99.90
2018-05-23T02:21:34.836Z,99.90
2018-05-23T02:24:02.273Z,99.90
2018-05-23T02:26:29.732Z,99.90
2018-05-23T02:28:57.173Z,99.90
2018-05-23T02:31:24.614Z,99.90
2018-05-23T02:33:52.045Z,99.90
2018-05-23T02:36:19.672Z,99.90
2018-05-23T02:38:47.126Z,99.90
2018-05-23T02:41:14.563Z,99.90
2018-05-23T02:43:41.990Z,99.90
2018-05-23T02:46:15.173Z,99.90
2018-05-23T02:48:42.620Z,99.90
2018-05-23T02:51:10.824Z,99.90
2018-05-23T02:53:38.302Z,99.90
2018-05-23T02:56:05.737Z,99.90
2018-05-23T02:58:33.190Z,99.90
2018-05-23T03:01:00.685Z,99.90
2018-05-23T03:03:28.882Z,99.90
2018-05-23T03:05:57.081Z,99.90
2018-05-23T03:08:24.520Z,99.90
2018-05-23T03:10:52.713Z,99.90
2018-05-23T03:13:20.205Z,99.90
2018-05-23T03:15:47.743Z,99.90
2018-05-23T03:18:15.165Z,99.90
2018-05-23T03:20:43.363Z,99.90
2018-05-23T03:23:10.795Z,99.90
2018-05-23T03:25:38.993Z,99.90
2018-05-23T03:28:06.436Z,99.90
2018-05-23T03:30:33.873Z,99.90
2018-05-23T03:33:02.094Z,99.90
2018-05-23T03:35:29.526Z,99.90
2018-05-23T03:37:56.959Z,99.90
2018-05-23T03:40:25.149Z,99.90
2018-05-23T03:42:52.592Z,99.90
2018-05-23T03:45:20.792Z,99.90
2018-05-23T03:47:48.270Z,99.90
2018-05-23T03:50:15.696Z,99.90
2018-05-23T03:52:43.132Z,99.90
2018-05-23T03:55:11.339Z,99.90
2018-05-23T03:57:38.773Z,99.90
2018-05-23T04:00:18.180Z,99.90
2018-05-23T04:02:57.448Z,99.90
2018-05-23T04:05:38.514Z,99.90
2018-05-23T04:08:05.964Z,99.90
2018-05-23T04:10:34.156Z,99.90
2018-05-23T04:13:01.605Z,99.90
2018-05-23T04:15:29.101Z,99.90
2018-05-23T04:17:56.466Z,99.90
2018-05-23T04:20:23.929Z,99.90
2018-05-23T04:22:51.377Z,99.90
2018-05-23T04:25:18.833Z,99.90
2018-05-23T04:27:46.257Z,99.90
2018-05-23T04:30:13.744Z,99.90
2018-05-23T04:32:41.191Z,99.90
2018-05-23T04:35:08.620Z,99.90
2018-05-23T04:37:36.112Z,99.90
2018-05-23T04:40:03.549Z,99.90
2018-05-23T04:42:31.103Z,99.90
2018-05-23T04:44:58.525Z,99.90
2018-05-23T04:47:26.721Z,99.90
2018-05-23T04:49:54.185Z,99.90
2018-05-23T04:52:21.641Z,99.90
2018-05-23T04:54:49.107Z,99.90
2018-05-23T04:57:16.549Z,99.90
2018-05-23T04:59:44.021Z,99.90
2018-05-23T05:02:11.445Z,99.90
2018-05-23T05:04:38.876Z,99.90
2018-05-23T05:07:06.316Z,99.90
2018-05-23T05:09:33.842Z,99.90
2018-05-23T05:12:01.272Z,99.90
2018-05-23T05:14:28.734Z,99.90
2018-05-23T05:16:56.952Z,99.90
2018-05-23T05:19:24.422Z,99.90
2018-05-23T05:21:51.856Z,99.90
2018-05-23T05:24:19.309Z,99.90
2018-05-23T05:26:46.735Z,99.90
2018-05-23T05:29:14.228Z,99.90
2018-05-23T05:31:41.694Z,99.90
2018-05-23T05:34:10.096Z,99.90
2018-05-23T05:36:38.290Z,99.90
2018-05-23T05:39:05.740Z,99.90
2018-05-23T05:41:34.049Z,99.90
2018-05-23T05:44:01.473Z,99.90
2018-05-23T05:46:29.699Z,99.90
2018-05-23T05:48:57.235Z,99.90
2018-05-23T05:51:24.821Z,99.90
2018-05-23T05:53:52.267Z,99.90
2018-05-23T05:56:19.731Z,99.90
2018-05-23T05:58:47.172Z,99.90
2018-05-23T06:01:14.649Z,99.90
2018-05-23T06:03:42.121Z,99.90
2018-05-23T06:06:09.591Z,99.90
2018-05-23T06:08:37.092Z,99.90
2018-05-23T06:11:04.531Z,99.90
2018-05-23T06:13:31.971Z,99.90
2018-05-23T06:16:00.217Z,99.90
2018-05-23T06:18:27.739Z,99.90
2018-05-23T06:20:55.176Z,99.90
2018-05-23T06:23:22.641Z,99.90
2018-05-23T06:25:50.075Z,99.90
2018-05-23T06:28:17.537Z,99.90
2018-05-23T06:30:45.015Z,99.90
2018-05-23T06:33:12.471Z,99.90
2018-05-23T06:35:39.953Z,99.90
2018-05-23T06:38:07.398Z,99.90
2018-05-23T06:40:34.845Z,99.90
2018-05-23T06:43:02.308Z,99.90
2018-05-23T06:45:29.776Z,99.90
2018-05-23T06:47:57.222Z,99.90
2018-05-23T06:50:24.769Z,99.90
2018-05-23T06:52:52.205Z,99.90
2018-05-23T06:55:19.728Z,99.90
2018-05-23T06:57:47.156Z,99.90
2018-05-23T07:00:14.662Z,99.90
2018-05-23T07:02:42.058Z,99.90
2018-05-23T07:05:09.528Z,99.90
2018-05-23T07:07:36.962Z,99.90
2018-05-23T07:10:04.448Z,99.90
2018-05-23T07:12:31.876Z,99.90
2018-05-23T07:14:59.332Z,99.90
2018-05-23T07:17:26.781Z,99.90
2018-05-23T07:19:54.229Z,99.90
2018-05-23T07:22:21.698Z,99.90
2018-05-23T07:24:49.258Z,99.90
2018-05-23T07:27:16.749Z,99.90
2018-05-23T07:29:44.202Z,99.90
2018-05-23T07:32:11.630Z,99.90
2018-05-23T07:34:39.105Z,99.90
2018-05-23T07:37:06.551Z,99.90
2018-05-23T07:39:34.034Z,99.90
2018-05-23T07:42:01.460Z,99.90
2018-05-23T07:44:29.012Z,99.90
2018-05-23T07:46:56.457Z,99.90
2018-05-23T07:49:24.026Z,99.90
2018-05-23T07:51:51.860Z,99.90
2018-05-23T07:54:20.173Z,99.90
2018-05-23T07:56:47.644Z,99.90
2018-05-23T07:59:15.182Z,99.90
2018-05-23T08:01:42.617Z,99.90
2018-05-23T08:04:10.199Z,99.90
2018-05-23T08:06:37.623Z,99.90
2018-05-23T08:09:05.818Z,99.90
2018-05-23T08:11:33.288Z,99.90
2018-05-23T08:14:00.732Z,99.90
2018-05-23T08:16:28.171Z,99.90
2018-05-23T08:18:55.688Z,99.90
2018-05-23T08:21:23.130Z,99.90
2018-05-23T08:23:50.585Z,99.90
2018-05-23T08:26:18.103Z,99.90
2018-05-23T08:28:45.644Z,99.90
2018-05-23T08:31:13.085Z,99.90
2018-05-23T08:33:40.556Z,99.90
2018-05-23T08:36:09.636Z,99.90
2018-05-23T08:38:37.148Z,99.90
2018-05-23T08:41:04.571Z,99.90
2018-05-23T08:43:32.817Z,99.90
2018-05-23T08:46:01.075Z,99.90
2018-05-23T08:48:28.477Z,99.90
2018-05-23T08:50:56.677Z,99.90
2018-05-23T08:53:24.239Z,99.90
2018-05-23T08:55:51.669Z,99.90
2018-05-23T08:58:19.152Z,99.90
2018-05-23T09:00:46.653Z,99.90
2018-05-23T09:03:14.270Z,99.90
2018-05-23T09:05:41.776Z,99.90
2018-05-23T09:08:09.217Z,99.90
2018-05-23T09:10:36.676Z,99.90
2018-05-23T09:13:05.626Z,99.90
2018-05-23T09:15:33.062Z,99.90
2018-05-23T09:18:00.547Z,99.90
2018-05-23T09:20:28.006Z,99.90
2018-05-23T09:22:55.495Z,99.90
2018-05-23T09:25:22.961Z,99.90
2018-05-23T09:27:50.376Z,99.90
2018-05-23T09:30:17.843Z,99.90
2018-05-23T09:32:45.290Z,99.90
2018-05-23T09:35:12.726Z,99.90
2018-05-23T09:37:40.160Z,99.90
2018-05-23T09:40:07.688Z,99.90
2018-05-23T09:42:35.134Z,99.90
2018-05-23T09:45:02.681Z,99.90
2018-05-23T09:47:30.135Z,99.90
2018-05-23T09:49:57.605Z,99.90
2018-05-23T09:52:25.051Z,99.30
2018-05-23T09:54:52.494Z,98.90
2018-05-23T09:57:19.966Z,99.30
2018-05-23T09:59:48.289Z,98.90
2018-05-23T10:02:16.505Z,99.60
2018-05-23T10:04:44.020Z,99.60
2018-05-23T10:07:12.219Z,98.80
2018-05-23T10:09:39.794Z,98.80
2018-05-23T10:12:07.304Z,97.80
2018-05-23T10:14:34.758Z,97.30
2018-05-23T10:17:02.283Z,97.60
2018-05-23T10:19:29.752Z,97.90
2018-05-23T10:21:57.284Z,96.60
2018-05-23T10:24:24.759Z,96.80
2018-05-23T10:26:52.307Z,96.90
2018-05-23T10:29:19.765Z,96.40
2018-05-23T10:31:47.244Z,95.80
2018-05-23T10:34:14.708Z,95.60
2018-05-23T10:36:42.157Z,96.40
2018-05-23T10:39:09.691Z,95.80
2018-05-23T10:41:37.092Z,96.10
2018-05-23T10:44:05.445Z,96.00
2018-05-23T10:46:32.875Z,95.90
2018-05-23T10:49:00.328Z,95.50
2018-05-23T10:51:27.766Z,95.80
2018-05-23T10:53:55.200Z,96.00
2018-05-23T10:56:23.420Z,95.90
2018-05-23T10:58:50.893Z,95.90
2018-05-23T11:01:18.438Z,95.30
2018-05-23T11:03:45.856Z,95.50
2018-05-23T11:06:14.163Z,95.30
2018-05-23T11:08:41.591Z,95.20
2018-05-23T11:11:09.805Z,95.50
2018-05-23T11:13:37.260Z,95.50
2018-05-23T11:16:04.724Z,94.90
2018-05-23T11:18:32.189Z,94.70
2018-05-23T11:20:59.717Z,95.30
2018-05-23T11:23:27.198Z,95.80
2018-05-23T11:25:54.649Z,95.60
2018-05-23T11:28:22.191Z,94.40
2018-05-23T11:30:49.886Z,94.80
2018-05-23T11:33:17.397Z,95.50
2018-05-23T11:35:44.831Z,96.10
2018-05-23T11:38:12.268Z,96.00
2018-05-23T11:40:39.693Z,95.80
2018-05-23T11:43:07.341Z,96.00
2018-05-23T11:45:34.752Z,94.80
2018-05-23T11:48:02.980Z,94.90
2018-05-23T11:50:30.466Z,94.90
2018-05-23T11:52:58.084Z,94.30
2018-05-23T11:55:25.578Z,94.70
2018-05-23T11:57:53.726Z,94.90
2018-05-23T12:00:21.277Z,94.80
2018-05-23T12:02:48.732Z,95.10
2018-05-23T12:07:50.809Z,95.60
2018-05-23T12:10:18.563Z,95.60
2018-05-23T12:12:45.968Z,94.60
2018-05-23T12:15:13.396Z,94.10
2018-05-23T12:17:40.949Z,94.20
2018-05-23T12:20:08.360Z,94.30
2018-05-23T12:22:36.626Z,94.10
2018-05-23T12:25:04.081Z,93.70
2018-05-23T12:27:31.531Z,93.90
2018-05-23T12:29:59.054Z,94.00
2018-05-23T12:32:26.544Z,93.30
2018-05-23T12:34:53.969Z,92.70
2018-05-23T12:37:21.421Z,92.90
2018-05-23T12:39:48.880Z,92.80
2018-05-23T12:42:16.366Z,93.60
2018-05-23T12:44:43.836Z,92.70
2018-05-23T12:47:11.281Z,92.70
2018-05-23T12:49:38.716Z,92.50
2018-05-23T12:52:06.196Z,93.00
2018-05-23T12:54:33.632Z,93.30
2018-05-23T12:57:01.182Z,93.30
2018-05-23T12:59:28.667Z,93.30
2018-05-23T13:01:56.092Z,93.80
2018-05-23T13:04:23.569Z,93.10
2018-05-23T13:06:51.031Z,93.00
2018-05-23T13:09:18.461Z,93.20
2018-05-23T13:11:45.904Z,92.80
2018-05-23T13:14:13.337Z,93.00
2018-05-23T13:16:41.545Z,94.30
2018-05-23T13:19:09.102Z,94.20
2018-05-23T13:21:36.528Z,95.10
2018-05-23T13:24:04.732Z,94.70
2018-05-23T13:26:32.261Z,94.60
2018-05-23T13:29:00.464Z,95.70
2018-05-23T13:31:27.904Z,95.70
2018-05-23T13:33:55.479Z,96.40
2018-05-23T13:36:22.957Z,96.80
2018-05-23T13:38:50.574Z,97.50
2018-05-23T13:41:18.256Z,98.10
2018-05-23T13:43:45.706Z,98.80
2018-05-23T13:46:13.133Z,98.60
2018-05-23T13:48:41.374Z,97.80
2018-05-23T13:51:08.816Z,97.80
2018-05-23T13:53:36.253Z,97.50
2018-05-23T13:56:03.723Z,97.90
2018-05-23T13:58:31.149Z,98.10
2018-05-23T14:00:58.611Z,98.30
2018-05-23T14:03:26.050Z,98.30
2018-05-23T14:05:54.257Z,98.80
2018-05-23T14:08:21.710Z,98.70
2018-05-23T14:10:49.142Z,99.10
2018-05-23T14:13:17.377Z,98.40
2018-05-23T14:15:44.816Z,98.40
2018-05-23T14:18:12.296Z,98.30
2018-05-23T14:20:39.724Z,98.30
2018-05-23T14:23:07.204Z,98.40
2018-05-23T14:25:34.675Z,98.90
2018-05-23T14:28:02.099Z,98.30
2018-05-23T14:30:29.543Z,98.10
2018-05-23T14:32:56.989Z,98.20
2018-05-23T14:35:24.448Z,98.10
2018-05-23T14:37:51.878Z,97.90
2018-05-23T14:40:19.349Z,97.50
2018-05-23T14:42:46.818Z,97.40
2018-05-23T14:45:14.252Z,97.50
2018-05-23T14:47:41.729Z,97.70
2018-05-23T14:50:09.210Z,97.50
2018-05-23T14:52:36.608Z,97.60
2018-05-23T14:55:05.432Z,96.90
2018-05-23T14:57:32.891Z,96.90
2018-05-23T15:00:00.325Z,96.60
2018-05-23T15:02:27.842Z,96.30
2018-05-23T15:04:55.987Z,96.40
2018-05-23T15:07:23.438Z,96.30
2018-05-23T15:09:50.902Z,96.40
2018-05-23T15:12:18.552Z,96.80
2018-05-23T15:14:45.970Z,95.20
2018-05-23T15:17:14.172Z,94.20
2018-05-23T15:19:41.729Z,94.20
2018-05-23T15:22:09.090Z,93.50
2018-05-23T15:24:36.679Z,93.30
2018-05-23T15:27:04.140Z,92.80
2018-05-23T15:29:31.617Z,91.60
2018-05-23T15:31:59.834Z,91.10
2018-05-23T15:34:27.289Z,91.10
2018-05-23T15:36:54.745Z,90.40
2018-05-23T15:39:22.202Z,90.00
2018-05-23T15:41:49.674Z,88.30
2018-05-23T15:44:17.878Z,88.40
2018-05-23T15:46:45.247Z,88.40
2018-05-23T15:49:13.449Z,87.70
2018-05-23T15:51:40.884Z,87.60
2018-05-23T15:54:08.349Z,86.90
2018-05-23T15:56:35.809Z,87.00
2018-05-23T15:59:04.055Z,87.10
2018-05-23T16:01:31.949Z,87.00
2018-05-23T16:03:59.443Z,85.70
2018-05-23T16:06:26.877Z,85.60
2018-05-23T16:08:54.308Z,85.00
2018-05-23T16:11:22.529Z,84.80
2018-05-23T16:13:49.973Z,84.80
2018-05-23T16:16:17.422Z,84.80
2018-05-23T16:18:44.848Z,84.60
2018-05-23T16:21:13.056Z,83.00
2018-05-23T16:23:41.181Z,83.00
2018-05-23T16:26:09.506Z,83.10
2018-05-23T16:28:36.921Z,83.20
2018-05-23T16:31:05.237Z,82.40
2018-05-23T16:33:32.677Z,82.20
2018-05-23T16:36:00.150Z,82.10
2018-05-23T16:38:27.709Z,80.30
2018-05-23T16:40:55.167Z,80.40
2018-05-23T16:43:22.784Z,80.40
2018-05-23T16:45:51.057Z,81.80
2018-05-23T16:48:18.532Z,81.80
2018-05-23T16:50:46.781Z,79.20
2018-05-23T16:53:14.272Z,79.20
2018-05-23T16:55:42.573Z,78.90
2018-05-23T16:58:10.009Z,78.80
2018-05-23T17:00:37.471Z,78.70
2018-05-23T17:03:04.876Z,78.40
2018-05-23T17:05:32.409Z,77.90
2018-05-23T17:07:59.842Z,78.90
2018-05-23T17:10:27.286Z,79.40
2018-05-23T17:12:54.735Z,78.70
2018-05-23T17:15:22.216Z,78.50
2018-05-23T17:17:49.701Z,78.90
2018-05-23T17:20:17.254Z,77.60
2018-05-23T17:22:44.732Z,77.80
2018-05-23T17:25:12.188Z,78.20
2018-05-23T17:27:39.639Z,78.30
2018-05-23T17:30:07.056Z,79.50
2018-05-23T17:32:34.521Z,78.50
2018-05-23T17:35:01.972Z,77.60
2018-05-23T17:37:29.400Z,78.00
2018-05-23T17:39:56.872Z,77.50
2018-05-23T17:42:24.349Z,77.10
2018-05-23T17:44:51.793Z,76.30
2018-05-23T17:47:19.285Z,76.70
2018-05-23T17:49:47.120Z,77.20
2018-05-23T17:52:14.548Z,77.50
2018-05-23T17:54:41.976Z,77.80
2018-05-23T17:57:09.445Z,78.30
2018-05-23T17:59:36.945Z,79.30
2018-05-23T18:02:04.402Z,79.50
2018-05-23T18:04:31.825Z,79.50
2018-05-23T18:07:00.036Z,80.30
2018-05-23T18:09:27.520Z,80.20
2018-05-23T18:11:54.992Z,80.60
2018-05-23T18:14:22.453Z,80.70
2018-05-23T18:16:50.753Z,81.20
2018-05-23T18:19:18.103Z,81.00
2018-05-23T18:21:46.356Z,81.70
2018-05-23T18:24:13.800Z,81.60
2018-05-23T18:26:41.240Z,81.50
2018-05-23T18:29:08.772Z,82.00
2018-05-23T18:31:36.216Z,81.80
2018-05-23T18:34:03.717Z,82.90
2018-05-23T18:36:31.253Z,82.20
2018-05-23T18:38:58.687Z,82.50
2018-05-23T18:41:26.219Z,82.80
2018-05-23T18:43:53.646Z,83.30
2018-05-23T18:46:21.117Z,83.50
2018-05-23T18:48:48.558Z,84.00
2018-05-23T18:51:16.085Z,84.40
2018-05-23T18:53:43.644Z,84.90
2018-05-23T18:56:11.116Z,84.80
2018-05-23T18:58:38.621Z,85.00
2018-05-23T19:01:06.816Z,85.40
2018-05-23T19:03:34.292Z,85.40
2018-05-23T19:06:01.747Z,85.40
2018-05-23T19:08:29.167Z,85.80
2018-05-23T19:10:57.401Z,86.10
2018-05-23T19:13:24.850Z,86.00
2018-05-23T19:15:52.292Z,86.00
2018-05-23T19:18:19.848Z,86.60
2018-05-23T19:20:47.274Z,86.60
2018-05-23T19:23:15.488Z,86.80
2018-05-23T19:25:43.036Z,86.70
2018-05-23T19:28:10.543Z,87.10
2018-05-23T19:30:37.993Z,87.10
2018-05-23T19:33:05.481Z,87.10
2018-05-23T19:35:32.889Z,87.40
2018-05-23T19:38:00.421Z,87.30
2018-05-23T19:40:27.888Z,87.40
2018-05-23T19:42:55.316Z,87.70
2018-05-23T19:45:22.800Z,87.60
2018-05-23T19:47:50.346Z,87.70
2018-05-23T19:50:17.802Z,87.80
2018-05-23T19:52:45.286Z,87.90
2018-05-23T19:55:12.741Z,87.40
2018-05-23T19:57:40.197Z,87.70
2018-05-23T20:00:07.644Z,88.00
2018-05-23T20:02:35.082Z,87.90
2018-05-23T20:05:02.529Z,88.10
2018-05-23T20:07:29.966Z,88.40
2018-05-23T20:09:58.165Z,88.40
2018-05-23T20:12:25.650Z,88.30
2018-05-23T20:14:53.076Z,88.70
2018-05-23T20:17:20.516Z,88.50
2018-05-23T20:19:48.020Z,89.10
2018-05-23T20:22:15.554Z,88.70
2018-05-23T20:24:42.989Z,88.90
2018-05-23T20:27:11.675Z,89.40
2018-05-23T20:29:39.975Z,89.60
2018-05-23T20:32:07.409Z,89.40
2018-05-23T20:34:34.838Z,89.80
2018-05-23T20:37:03.048Z,90.30
2018-05-23T20:39:30.479Z,90.00
2018-05-23T20:41:58.695Z,90.20
2018-05-23T20:44:26.136Z,90.20
2018-05-23T20:46:53.604Z,90.30
2018-05-23T20:49:21.024Z,90.50
2018-05-23T20:51:49.247Z,90.80
2018-05-23T20:54:16.700Z,90.70
2018-05-23T20:56:44.174Z,90.90
2018-05-23T20:59:11.627Z,91.00
2018-05-23T21:01:39.157Z,91.30
2018-05-23T21:04:06.728Z,91.50
2018-05-23T21:06:34.188Z,91.70
2018-05-23T21:09:01.686Z,91.90
2018-05-23T21:11:29.225Z,92.10
2018-05-23T21:13:56.660Z,92.20
2018-05-23T21:16:24.117Z,92.40
2018-05-23T21:18:51.625Z,92.60
2018-05-23T21:21:19.879Z,93.00
2018-05-23T21:23:47.311Z,93.00
2018-05-23T21:26:14.785Z,93.20
2018-05-23T21:28:42.310Z,93.50
2018-05-23T21:31:09.735Z,93.70
2018-05-23T21:33:37.217Z,93.80
2018-05-23T21:36:04.739Z,94.10
2018-05-23T21:38:32.335Z,94.40
2018-05-23T21:40:59.835Z,94.50
2018-05-23T21:43:27.278Z,94.80
2018-05-23T21:45:54.735Z,94.90
2018-05-23T21:48:22.192Z,95.00
2018-05-23T21:50:49.719Z,95.30
2018-05-23T21:53:17.141Z,95.50
2018-05-23T21:55:45.333Z,96.00
2018-05-23T21:58:12.831Z,96.00
2018-05-23T22:00:40.583Z,96.20
2018-05-23T22:03:08.092Z,96.50
2018-05-23T22:05:36.284Z,96.90
2018-05-23T22:08:03.737Z,96.80
2018-05-23T22:10:31.252Z,97.10
2018-05-23T22:12:59.448Z,97.40
2018-05-23T22:15:27.661Z,97.50
2018-05-23T22:17:55.086Z,97.50
2018-05-23T22:20:23.365Z,97.80
2018-05-23T22:22:51.569Z,97.90
2018-05-23T22:25:19.094Z,97.90
2018-05-23T22:27:47.293Z,98.20
2018-05-23T22:30:14.740Z,98.20
2018-05-23T22:32:42.173Z,98.40
2018-05-23T22:35:10.368Z,98.60
2018-05-23T22:37:37.809Z,98.50
2018-05-23T22:40:06.018Z,98.90
2018-05-23T22:42:33.453Z,98.80
2018-05-23T22:45:00.928Z,99.40
2018-05-23T22:47:28.373Z,99.10
2018-05-23T22:49:55.852Z,99.40
2018-05-23T22:52:23.300Z,99.40
2018-05-23T22:54:50.731Z,99.50
2018-05-23T22:57:18.953Z,99.70
2018-05-23T22:59:46.392Z,99.60
2018-05-23T23:02:13.840Z,99.70
2018-05-23T23:04:41.264Z,99.90
2018-05-23T23:07:08.752Z,99.90
2018-05-23T23:09:36.209Z,99.90
2018-05-23T23:12:03.649Z,99.90
2018-05-23T23:14:31.148Z,99.90
2018-05-23T23:16:58.595Z,99.90
2018-05-23T23:19:26.037Z,99.90
2018-05-23T23:21:53.476Z,99.90
2018-05-23T23:24:20.970Z,99.90
2018-05-23T23:26:48.430Z,99.90
2018-05-23T23:29:15.864Z,99.90
2018-05-23T23:31:43.296Z,99.90
2018-05-23T23:34:10.806Z,99.90
2018-05-23T23:36:38.244Z,99.90
2018-05-23T23:39:05.681Z,99.90
2018-05-23T23:41:33.129Z,99.90
2018-05-23T23:44:00.617Z,99.90
2018-05-23T23:46:28.064Z,99.90
2018-05-23T23:48:55.505Z,99.90
2018-05-23T23:51:22.984Z,99.90
2018-05-23T23:53:50.424Z,99.90
2018-05-23T23:56:17.856Z,99.90
2018-05-23T23:58:45.356Z,99.90
